createdAt,value
2018-12-20T00:00:44.667Z,35.13
2018-12-20T00:03:18.579Z,25.33
2018-12-20T00:05:52.419Z,23.40
2018-12-20T00:08:26.404Z,24.43
2018-12-20T00:11:00.340Z,22.97
2018-12-20T00:13:34.557Z,23.37
2018-12-20T00:16:08.380Z,22.20
2018-12-20T00:18:42.440Z,15.23
2018-12-20T00:21:16.419Z,16.77
2018-12-20T00:23:50.408Z,24.60
2018-12-20T00:26:24.255Z,21.77
2018-12-20T00:28:58.189Z,16.10
2018-12-20T00:31:32.198Z,19.43
2018-12-20T00:34:06.258Z,19.97
2018-12-20T00:36:40.232Z,17.97
2018-12-20T00:39:14.312Z,15.43
2018-12-20T00:41:48.494Z,16.93
2018-12-20T00:44:22.482Z,16.60
2018-12-20T00:46:56.530Z,22.67
2018-12-20T00:49:30.553Z,19.27
2018-12-20T00:52:04.556Z,15.10
2018-12-20T00:54:38.533Z,26.40
2018-12-20T00:57:12.519Z,16.57
2018-12-20T00:59:46.497Z,15.93
2018-12-20T01:02:20.470Z,15.23
2018-12-20T01:04:54.363Z,18.50
2018-12-20T01:07:28.414Z,20.20
2018-12-20T01:10:02.603Z,18.23
2018-12-20T01:12:36.550Z,16.90
2018-12-20T01:15:10.730Z,18.53
2018-12-20T01:17:44.598Z,20.17
2018-12-20T01:20:18.680Z,17.40
2018-12-20T01:22:52.635Z,17.43
2018-12-20T01:25:26.701Z,18.63
2018-12-20T01:30:41.039Z,22.47
2018-12-20T01:33:14.987Z,22.03
2018-12-20T01:35:49.043Z,16.43
2018-12-20T01:38:23.049Z,19.57
2018-12-20T01:40:57.046Z,16.43
2018-12-20T01:43:31.064Z,19.83
2018-12-20T01:46:05.193Z,18.10
2018-12-20T01:48:39.375Z,17.70
2018-12-20T01:51:13.314Z,13.40
2018-12-20T01:53:47.147Z,17.20
2018-12-20T01:56:21.281Z,16.53
2018-12-20T01:58:55.404Z,16.40
2018-12-20T02:01:29.562Z,18.73
2018-12-20T02:04:03.702Z,16.57
2018-12-20T02:06:37.643Z,20.07
2018-12-20T02:09:11.620Z,18.63
2018-12-20T02:11:45.852Z,20.63
2018-12-20T02:14:19.852Z,21.60
2018-12-20T02:16:53.824Z,19.03
2018-12-20T02:19:28.010Z,12.60
2018-12-20T02:22:02.079Z,16.37
2018-12-20T02:24:35.990Z,16.13
2018-12-20T02:27:10.017Z,15.33
2018-12-20T02:29:44.110Z,14.70
2018-12-20T02:32:17.980Z,22.10
2018-12-20T02:34:52.163Z,32.73
2018-12-20T02:37:26.182Z,22.23
2018-12-20T02:40:00.530Z,32.63
2018-12-20T02:42:34.571Z,38.83
2018-12-20T02:45:10.923Z,40.13
2018-12-20T02:47:44.799Z,18.33
2018-12-20T02:50:18.674Z,20.13
2018-12-20T02:52:52.761Z,56.67
2018-12-20T02:55:26.754Z,21.70
2018-12-20T02:58:00.700Z,25.57
2018-12-20T03:00:34.820Z,23.37
2018-12-20T03:03:08.844Z,25.53
2018-12-20T03:05:43.004Z,29.50
2018-12-20T03:08:17.432Z,45.37
2018-12-20T03:10:51.450Z,26.60
2018-12-20T03:13:25.430Z,29.83
2018-12-20T03:15:59.376Z,21.97
2018-12-20T03:18:33.379Z,18.10
2018-12-20T03:21:07.445Z,24.87
2018-12-20T03:23:41.523Z,19.97
2018-12-20T03:26:15.392Z,35.10
2018-12-20T03:28:49.584Z,20.60
2018-12-20T03:31:23.650Z,17.70
2018-12-20T03:33:57.483Z,15.23
2018-12-20T03:36:31.446Z,20.60
2018-12-20T03:39:06.954Z,18.97
2018-12-20T03:41:41.393Z,17.30
2018-12-20T03:44:15.298Z,10.60
2018-12-20T03:46:49.327Z,22.60
2018-12-20T03:49:23.206Z,17.97
2018-12-20T03:51:57.199Z,19.57
2018-12-20T03:54:31.095Z,13.90
2018-12-20T03:57:05.083Z,19.80
2018-12-20T03:59:38.977Z,9.73
2018-12-20T04:02:13.149Z,22.00
2018-12-20T04:04:47.033Z,15.00
2018-12-20T04:07:21.243Z,10.07
2018-12-20T04:09:55.196Z,10.93
2018-12-20T04:12:29.063Z,10.93
2018-12-20T04:15:03.182Z,15.63
2018-12-20T04:17:37.453Z,13.70
2018-12-20T04:20:11.356Z,15.50
2018-12-20T04:22:45.445Z,18.37
2018-12-20T04:25:19.320Z,11.73
2018-12-20T04:27:53.263Z,11.17
2018-12-20T04:30:27.281Z,10.30
2018-12-20T04:33:01.421Z,12.37
2018-12-20T04:35:35.400Z,9.27
2018-12-20T04:38:09.785Z,8.17
2018-12-20T04:40:44.451Z,12.23
2018-12-20T04:43:18.379Z,8.47
2018-12-20T04:45:52.519Z,9.70
2018-12-20T04:48:26.339Z,6.23
2018-12-20T04:51:00.395Z,4.60
2018-12-20T04:53:34.420Z,14.00
2018-12-20T04:56:08.313Z,9.03
2018-12-20T04:58:42.344Z,8.57
2018-12-20T05:01:16.395Z,4.90
2018-12-20T05:03:50.435Z,9.00
2018-12-20T05:06:24.521Z,5.13
2018-12-20T05:08:58.421Z,8.17
2018-12-20T05:11:32.342Z,6.10
2018-12-20T05:14:06.409Z,6.27
2018-12-20T05:16:40.529Z,8.10
2018-12-20T05:19:14.917Z,6.07
2018-12-20T05:21:49.063Z,4.60
2018-12-20T05:24:23.366Z,13.23
2018-12-20T05:26:57.391Z,6.00
2018-12-20T05:29:31.627Z,7.23
2018-12-20T05:32:06.102Z,6.10
2018-12-20T05:34:40.072Z,11.50
2018-12-20T05:37:14.260Z,7.47
2018-12-20T05:39:48.244Z,11.83
2018-12-20T05:42:22.328Z,9.90
2018-12-20T05:44:56.368Z,10.27
2018-12-20T05:47:30.269Z,8.93
2018-12-20T05:50:04.475Z,8.17
2018-12-20T05:52:38.606Z,17.70
2018-12-20T05:55:12.737Z,15.60
2018-12-20T05:57:46.568Z,13.37
2018-12-20T06:00:20.541Z,10.20
2018-12-20T06:02:54.628Z,22.40
2018-12-20T06:05:28.748Z,22.40
2018-12-20T06:08:02.990Z,12.70
2018-12-20T06:10:37.025Z,3.97
2018-12-20T06:13:11.067Z,7.70
2018-12-20T06:15:45.271Z,8.73
2018-12-20T06:18:19.121Z,6.73
2018-12-20T06:20:53.252Z,7.17
2018-12-20T06:23:27.319Z,9.73
2018-12-20T06:26:01.402Z,10.60
2018-12-20T06:28:35.343Z,7.23
2018-12-20T06:31:09.226Z,14.37
2018-12-20T06:33:43.125Z,8.87
2018-12-20T06:36:17.115Z,10.47
2018-12-20T06:38:51.270Z,13.40
2018-12-20T06:41:25.379Z,13.20
2018-12-20T06:44:06.991Z,11.30
2018-12-20T06:46:37.399Z,8.77
2018-12-20T06:49:11.502Z,14.13
2018-12-20T06:51:45.322Z,9.67
2018-12-20T06:54:19.228Z,7.87
2018-12-20T06:56:53.203Z,4.87
2018-12-20T07:13:16.072Z,8.70
2018-12-20T07:15:50.003Z,7.37
2018-12-20T07:18:23.907Z,9.33
2018-12-20T07:20:57.820Z,6.30
2018-12-20T07:23:31.831Z,8.97
2018-12-20T07:26:05.743Z,7.73
2018-12-20T07:28:39.743Z,7.30
2018-12-20T07:31:14.085Z,10.63
2018-12-20T07:33:48.118Z,7.93
2018-12-20T07:36:22.095Z,7.70
2018-12-20T07:38:56.246Z,11.60
2018-12-20T07:41:30.333Z,5.67
2018-12-20T07:44:04.705Z,6.43
2018-12-20T07:46:38.835Z,11.37
2018-12-20T07:49:13.088Z,6.87
2018-12-20T07:51:47.154Z,8.50
2018-12-20T07:54:21.025Z,6.87
2018-12-20T07:59:45.609Z,16.90
2018-12-20T08:02:19.588Z,6.00
2018-12-20T08:04:53.711Z,8.07
2018-12-20T08:07:28.451Z,7.00
2018-12-20T08:13:15.688Z,5.07
2018-12-20T08:15:50.706Z,10.53
2018-12-20T08:18:24.940Z,5.90
2018-12-20T08:20:58.947Z,4.77
2018-12-20T08:23:32.944Z,8.53
2018-12-20T08:26:06.991Z,6.70
2018-12-20T08:28:41.009Z,4.10
2018-12-20T08:31:15.533Z,7.93
2018-12-20T08:33:49.846Z,5.43
2018-12-20T08:36:24.079Z,7.70
2018-12-20T08:38:57.985Z,5.10
2018-12-20T08:41:32.010Z,5.90
2018-12-20T08:44:06.111Z,4.60
2018-12-20T08:46:44.972Z,9.17
2018-12-20T08:49:22.539Z,7.40
2018-12-20T08:52:00.625Z,6.60
2018-12-20T08:54:34.609Z,8.03
2018-12-20T08:57:08.739Z,7.93
2018-12-20T08:59:45.489Z,5.97
2018-12-20T09:02:19.396Z,4.10
2018-12-20T09:04:53.443Z,4.63
2018-12-20T09:07:27.315Z,3.37
2018-12-20T09:10:02.719Z,6.10
2018-12-20T09:12:38.102Z,5.03
2018-12-20T09:15:12.196Z,3.53
2018-12-20T09:17:46.069Z,4.50
2018-12-20T09:20:19.971Z,5.23
2018-12-20T09:22:53.865Z,3.10
2018-12-20T09:25:27.792Z,7.83
2018-12-20T09:28:04.212Z,7.37
2018-12-20T09:30:38.705Z,4.47
2018-12-20T09:33:17.439Z,4.07
2018-12-20T09:35:52.815Z,6.33
2018-12-20T09:38:26.948Z,4.40
2018-12-20T09:41:01.078Z,4.67
2018-12-20T09:43:36.920Z,4.23
2018-12-20T09:46:11.087Z,30.57
2018-12-20T09:48:46.372Z,6.03
2018-12-20T09:51:20.836Z,5.87
2018-12-20T09:53:56.735Z,3.20
2018-12-20T09:56:30.652Z,4.80
2018-12-20T09:59:04.438Z,3.20
2018-12-20T10:01:39.132Z,5.33
2018-12-20T10:04:14.252Z,5.40
2018-12-20T10:06:48.405Z,7.13
2018-12-20T10:09:22.910Z,3.23
2018-12-20T10:11:59.100Z,5.93
2018-12-20T10:14:33.530Z,5.10
2018-12-20T10:17:07.748Z,4.73
2018-12-20T10:19:43.880Z,5.43
2018-12-20T10:22:18.038Z,6.47
2018-12-20T10:24:51.933Z,3.80
2018-12-20T10:27:31.310Z,3.40
2018-12-20T10:30:01.692Z,3.53
2018-12-20T10:32:35.532Z,3.53
2018-12-20T10:35:09.708Z,3.83
2018-12-20T10:37:46.425Z,6.30
2018-12-20T10:40:20.313Z,4.83
2018-12-20T10:42:54.274Z,3.93
2018-12-20T10:45:30.496Z,3.37
2018-12-20T10:48:04.400Z,4.57
2018-12-20T10:50:38.473Z,3.27
2018-12-20T10:53:12.372Z,5.23
2018-12-20T10:55:46.254Z,3.60
2018-12-20T10:58:21.467Z,1.73
2018-12-20T11:01:00.795Z,4.00
2018-12-20T11:03:40.033Z,12.00
2018-12-20T11:06:19.687Z,23.73
2018-12-20T11:08:59.042Z,3.90
2018-12-20T11:11:38.239Z,8.43
2018-12-20T11:14:13.585Z,5.60
2018-12-20T11:16:47.426Z,7.43
2018-12-20T11:19:25.926Z,7.50
2018-12-20T11:21:59.912Z,12.03
2018-12-20T11:24:33.798Z,12.77
2018-12-20T11:27:07.862Z,2.00
2018-12-20T11:29:41.790Z,11.23
2018-12-20T11:32:15.756Z,9.23
2018-12-20T11:34:49.599Z,2.40
2018-12-20T11:37:23.799Z,3.97
2018-12-20T11:39:59.750Z,8.40
2018-12-20T11:42:34.161Z,3.33
2018-12-20T11:45:08.156Z,7.37
2018-12-20T11:47:46.111Z,7.13
2018-12-20T11:50:19.744Z,11.30
2018-12-20T11:52:53.727Z,8.33
2018-12-20T11:55:27.809Z,7.80
2018-12-20T11:58:01.698Z,5.23
2018-12-20T12:00:38.727Z,7.50
2018-12-20T12:03:12.767Z,3.87
2018-12-20T12:05:46.762Z,4.43
2018-12-20T12:08:26.447Z,8.20
2018-12-20T12:11:00.318Z,2.30
2018-12-20T12:13:35.919Z,7.13
2018-12-20T12:16:10.075Z,12.53
2018-12-20T12:18:44.192Z,25.73
2018-12-20T12:21:21.161Z,9.10
2018-12-20T12:23:55.247Z,2.87
2018-12-20T12:26:29.324Z,8.53
2018-12-20T12:29:06.243Z,9.23
2018-12-20T12:37:39.093Z,2.30
2018-12-20T12:40:13.098Z,7.40
2018-12-20T12:42:49.786Z,3.37
2018-12-20T12:45:24.026Z,2.90
2018-12-20T12:48:03.621Z,6.47
2018-12-20T12:50:36.323Z,5.00
2018-12-20T12:53:10.289Z,6.97
2018-12-20T12:55:44.175Z,9.63
2018-12-20T12:58:18.021Z,4.50
2018-12-20T13:00:52.137Z,12.23
2018-12-20T13:03:26.060Z,2.93
2018-12-20T13:06:00.167Z,14.73
2018-12-20T13:08:34.177Z,3.80
2018-12-20T13:11:08.239Z,5.97
2018-12-20T13:13:42.091Z,11.53
2018-12-20T13:16:16.161Z,3.33
2018-12-20T13:18:50.208Z,11.33
2018-12-20T13:21:24.089Z,4.60
2018-12-20T13:23:58.262Z,1.70
2018-12-20T13:26:32.285Z,7.50
2018-12-20T13:29:06.126Z,3.33
2018-12-20T13:31:39.980Z,5.07
2018-12-20T13:34:14.018Z,5.40
2018-12-20T13:36:47.926Z,3.33
2018-12-20T13:39:21.996Z,3.00
2018-12-20T13:41:55.865Z,6.93
2018-12-20T13:44:29.987Z,4.60
2018-12-20T13:47:04.003Z,1.47
2018-12-20T13:49:38.026Z,3.37
2018-12-20T13:52:12.033Z,4.20
2018-12-20T13:54:46.080Z,3.63
2018-12-20T13:57:19.972Z,3.73
2018-12-20T13:59:53.803Z,2.90
2018-12-20T14:02:27.823Z,3.77
2018-12-20T14:05:01.817Z,13.10
2018-12-20T14:07:35.754Z,6.40
2018-12-20T14:10:09.763Z,5.93
2018-12-20T14:12:43.633Z,3.17
2018-12-20T14:15:17.669Z,9.47
2018-12-20T14:17:51.741Z,10.83
2018-12-20T14:20:25.819Z,1.63
2018-12-20T14:22:59.762Z,13.87
2018-12-20T14:25:33.719Z,4.27
2018-12-20T14:28:07.573Z,10.03
2018-12-20T14:30:41.462Z,7.43
2018-12-20T14:33:15.369Z,6.53
2018-12-20T14:35:49.399Z,8.33
2018-12-20T14:38:23.413Z,7.00
2018-12-20T14:40:57.299Z,3.37
2018-12-20T15:01:44.911Z,13.13
2018-12-20T15:04:19.100Z,3.20
2018-12-20T15:06:53.189Z,3.83
2018-12-20T15:26:56.265Z,5.43
2018-12-20T15:29:30.273Z,8.20
2018-12-20T15:32:04.412Z,8.53
2018-12-20T15:34:38.370Z,3.30
2018-12-20T15:37:12.361Z,6.70
2018-12-20T15:39:46.236Z,14.43
2018-12-20T15:42:20.085Z,6.27
2018-12-20T15:44:54.306Z,6.30
2018-12-20T15:47:28.458Z,4.97
2018-12-20T15:50:02.551Z,14.00
2018-12-20T15:52:36.407Z,3.37
2018-12-20T15:55:10.398Z,7.97
2018-12-20T16:26:34.383Z,4.17
2018-12-20T16:29:08.395Z,2.00
2018-12-20T16:31:42.443Z,6.83
2018-12-20T16:34:16.521Z,5.10
2018-12-20T16:36:50.387Z,5.80
2018-12-20T16:39:24.352Z,5.00
2018-12-20T16:41:58.407Z,7.23
2018-12-20T16:44:32.275Z,4.10
2018-12-20T16:47:06.138Z,4.20
2018-12-20T16:49:40.201Z,3.07
2018-12-20T16:52:14.317Z,1.97
2018-12-20T16:54:48.432Z,14.90
2018-12-20T16:57:22.383Z,14.80
2018-12-20T16:59:56.323Z,8.80
2018-12-20T17:02:30.256Z,5.77
2018-12-20T17:05:04.256Z,6.70
2018-12-20T17:07:38.195Z,11.30
2018-12-20T17:10:12.148Z,2.70
2018-12-20T17:12:46.134Z,11.93
2018-12-20T17:15:20.033Z,4.93
2018-12-20T17:17:53.909Z,3.70
2018-12-20T17:20:27.728Z,20.77
2018-12-20T17:23:01.715Z,1.93
2018-12-20T17:25:35.836Z,4.50
2018-12-20T17:28:09.818Z,6.93
2018-12-20T17:30:43.905Z,5.90
2018-12-20T17:33:17.783Z,17.43
2018-12-20T17:35:51.879Z,10.87
2018-12-20T17:38:25.935Z,5.20
2018-12-20T17:41:00.916Z,5.67
2018-12-20T17:43:34.937Z,4.80
2018-12-20T17:46:08.972Z,3.27
2018-12-20T17:48:43.230Z,5.63
2018-12-20T17:51:17.236Z,9.90
2018-12-20T17:53:51.171Z,1.97
2018-12-20T17:56:25.018Z,11.50
2018-12-20T17:58:59.049Z,7.80
2018-12-20T18:01:33.060Z,4.40
2018-12-20T18:04:06.984Z,16.33
2018-12-20T18:06:40.958Z,2.23
2018-12-20T18:09:14.792Z,4.83
2018-12-20T18:11:48.796Z,5.70
2018-12-20T18:14:23.019Z,3.57
2018-12-20T18:16:57.018Z,2.77
2018-12-20T18:19:38.869Z,6.73
2018-12-20T18:24:50.488Z,3.40
2018-12-20T18:27:24.497Z,8.43
2018-12-20T18:29:58.356Z,10.20
2018-12-20T18:32:32.351Z,5.03
2018-12-20T18:35:06.367Z,6.53
2018-12-20T18:37:40.391Z,3.67
2018-12-20T18:40:14.278Z,6.23
2018-12-20T18:42:48.191Z,5.33
2018-12-20T18:45:22.199Z,6.27
2018-12-20T18:47:56.169Z,15.30
2018-12-20T18:50:30.108Z,4.23
2018-12-20T18:53:04.167Z,5.73
2018-12-20T18:55:38.061Z,3.53
2018-12-20T18:58:12.058Z,2.10
2018-12-20T19:00:45.872Z,1.67
2018-12-20T19:03:20.760Z,3.17
2018-12-20T19:05:54.645Z,5.50
2018-12-20T19:08:28.669Z,3.30
2018-12-20T19:11:02.745Z,2.63
2018-12-20T19:13:36.858Z,7.10
2018-12-20T19:16:10.825Z,5.27
2018-12-20T19:18:45.038Z,4.20
2018-12-20T19:21:19.003Z,4.40
2018-12-20T19:23:53.011Z,2.17
2018-12-20T19:26:26.956Z,5.00
2018-12-20T19:29:01.008Z,3.43
2018-12-20T19:31:34.839Z,4.10
2018-12-20T19:34:08.831Z,16.43
2018-12-20T19:36:42.794Z,5.47
2018-12-20T19:39:17.333Z,2.23
2018-12-20T19:41:51.500Z,1.50
2018-12-20T19:44:25.415Z,3.70
2018-12-20T19:46:59.314Z,1.60
2018-12-20T19:49:33.197Z,3.17
2018-12-20T19:52:07.233Z,3.33
2018-12-20T19:54:47.916Z,2.63
2018-12-20T19:57:17.136Z,1.60
2018-12-20T19:59:51.194Z,5.43
2018-12-20T20:02:25.200Z,3.57
2018-12-20T20:04:59.171Z,2.27
2018-12-20T20:07:34.034Z,1.60
2018-12-20T20:10:09.628Z,5.10
2018-12-20T20:12:43.591Z,3.00
2018-12-20T20:15:17.515Z,5.37
2018-12-20T20:17:51.513Z,2.57
2018-12-20T20:20:25.590Z,4.53
2018-12-20T20:22:59.476Z,3.40
2018-12-20T20:25:33.324Z,2.90
2018-12-20T20:28:07.401Z,3.53
2018-12-20T20:30:41.306Z,7.03
2018-12-20T20:33:15.265Z,3.07
2018-12-20T20:35:49.451Z,5.33
2018-12-20T20:38:23.243Z,5.40
2018-12-20T20:40:57.280Z,2.30
2018-12-20T20:43:31.225Z,3.87
2018-12-20T20:46:05.596Z,9.70
2018-12-20T20:48:39.694Z,3.30
2018-12-20T20:51:13.568Z,4.90
2018-12-20T20:53:47.388Z,6.77
2018-12-20T20:56:21.351Z,3.63
2018-12-20T20:58:55.439Z,3.53
2018-12-20T21:01:29.431Z,4.70
2018-12-20T21:04:03.925Z,3.50
2018-12-20T21:06:38.018Z,4.33
2018-12-20T21:09:11.929Z,4.63
2018-12-20T21:11:45.966Z,6.63
2018-12-20T21:14:19.979Z,4.93
2018-12-20T21:16:53.941Z,4.70
2018-12-20T21:19:27.923Z,5.07
2018-12-20T21:22:01.934Z,9.87
2018-12-20T21:24:36.405Z,2.57
2018-12-20T21:27:10.442Z,2.83
2018-12-20T21:29:46.620Z,5.47
2018-12-20T21:32:20.497Z,2.23
2018-12-20T21:34:54.495Z,2.90
2018-12-20T21:37:28.481Z,5.10
2018-12-20T21:40:02.519Z,3.40
2018-12-20T21:42:36.322Z,4.07
2018-12-20T21:45:10.287Z,9.10
2018-12-20T21:47:44.442Z,4.80
2018-12-20T21:50:18.364Z,9.43
2018-12-20T21:52:52.219Z,4.00
2018-12-20T21:55:26.215Z,7.30
2018-12-20T21:58:00.253Z,4.80
2018-12-20T22:00:34.067Z,3.93
2018-12-20T22:03:08.093Z,3.93
2018-12-20T22:05:41.984Z,4.47
2018-12-20T22:08:15.997Z,5.83
2018-12-20T22:10:49.861Z,8.87
2018-12-20T22:13:23.919Z,5.23
2018-12-20T22:15:57.833Z,3.50
2018-12-20T22:18:31.884Z,7.93
2018-12-20T22:21:05.807Z,4.73
2018-12-20T22:23:39.625Z,5.10
2018-12-20T22:26:13.548Z,11.70
2018-12-20T22:28:47.631Z,4.00
2018-12-20T22:31:21.719Z,3.87
2018-12-20T22:33:55.536Z,4.70
2018-12-20T22:36:29.400Z,3.40
2018-12-20T22:39:04.293Z,5.93
2018-12-20T22:41:38.228Z,4.27
2018-12-20T22:44:12.197Z,4.70
2018-12-20T22:46:45.994Z,3.90
2018-12-20T22:49:19.996Z,4.50
2018-12-20T22:51:54.058Z,4.60
2018-12-20T22:54:27.941Z,7.23
2018-12-20T22:57:01.867Z,3.20
2018-12-20T22:59:35.823Z,3.20
2018-12-20T23:02:17.913Z,4.67
2018-12-20T23:04:45.940Z,5.77
2018-12-20T23:07:19.873Z,5.37
2018-12-20T23:09:53.835Z,5.20
2018-12-20T23:12:27.776Z,7.20
2018-12-20T23:15:01.749Z,3.57
2018-12-20T23:17:35.592Z,6.17
2018-12-20T23:20:09.553Z,5.90
2018-12-20T23:22:43.480Z,4.03
2018-12-20T23:25:17.488Z,2.97
2018-12-20T23:27:51.423Z,8.43
2018-12-20T23:30:25.415Z,3.83
2018-12-20T23:32:59.370Z,3.47
2018-12-20T23:35:33.340Z,2.37
2018-12-20T23:38:07.315Z,9.93
2018-12-20T23:40:41.269Z,3.57
2018-12-20T23:43:15.346Z,6.90
2018-12-20T23:45:49.197Z,7.83
2018-12-20T23:48:22.991Z,4.50
2018-12-20T23:50:56.970Z,2.00
2018-12-20T23:53:30.975Z,3.93
2018-12-20T23:56:04.939Z,2.03
2018-12-20T23:58:38.883Z,2.50
